createdAt,value
2019-02-17T00:00:25.633Z,4.64
2019-02-17T00:01:35.709Z,4.61
2019-02-17T00:02:45.789Z,4.58
2019-02-17T00:03:55.893Z,4.6
2019-02-17T00:05:07.802Z,4.6
2019-02-17T00:06:17.613Z,4.57
2019-02-17T00:07:27.696Z,4.54
2019-02-17T00:08:37.564Z,4.53
2019-02-17T00:09:47.611Z,4.51
2019-02-17T00:10:57.670Z,4.57
2019-02-17T00:12:07.758Z,4.53
2019-02-17T00:13:17.828Z,4.58
2019-02-17T00:14:28.833Z,4.65
2019-02-17T00:15:38.388Z,4.58
2019-02-17T00:16:48.506Z,4.61
2019-02-17T00:17:58.302Z,4.5
2019-02-17T00:19:08.361Z,4.44
2019-02-17T00:20:18.423Z,4.47
2019-02-17T00:21:28.493Z,4.44
2019-02-17T00:22:38.559Z,4.39
2019-02-17T00:23:48.608Z,4.4
2019-02-17T00:24:58.413Z,4.46
2019-02-17T00:26:09.165Z,4.4
2019-02-17T00:27:19.252Z,4.47
2019-02-17T00:28:29.386Z,4.36
2019-02-17T00:29:39.457Z,4.38
2019-02-17T00:30:49.518Z,4.54
2019-02-17T00:31:59.313Z,4.38
2019-02-17T00:33:09.131Z,4.38
2019-02-17T00:34:19.193Z,4.42
2019-02-17T00:35:29.268Z,4.47
2019-02-17T00:36:39.320Z,4.33
2019-02-17T00:37:49.196Z,4.33
2019-02-17T00:38:59.248Z,4.33
2019-02-17T00:40:09.320Z,4.26
2019-02-17T00:41:19.602Z,4.2
2019-02-17T00:42:29.664Z,4.29
2019-02-17T00:43:39.932Z,4.32
2019-02-17T00:44:49.753Z,4.32
2019-02-17T00:45:59.729Z,4.32
2019-02-17T00:47:09.549Z,4.29
2019-02-17T00:48:19.587Z,4.26
2019-02-17T00:49:29.690Z,4.3
2019-02-17T00:50:39.498Z,4.18
2019-02-17T00:51:49.612Z,4.28
2019-02-17T00:52:59.669Z,4.32
2019-02-17T00:54:09.737Z,4.28
2019-02-17T00:55:19.798Z,4.22
2019-02-17T00:56:29.865Z,4.21
2019-02-17T00:57:39.961Z,4.17
2019-02-17T00:58:50.068Z,4.18
2019-02-17T01:00:03.075Z,4.15
2019-02-17T01:01:13.195Z,4.1
2019-02-17T01:02:23.254Z,4.12
2019-02-17T01:03:33.301Z,4.1
2019-02-17T01:04:43.355Z,3.94
2019-02-17T01:05:53.457Z,3.92
2019-02-17T01:07:06.200Z,3.94
2019-02-17T01:08:16.256Z,3.92
2019-02-17T01:09:26.298Z,3.89
2019-02-17T01:10:36.110Z,3.89
2019-02-17T01:11:46.168Z,3.96
2019-02-17T01:12:56.263Z,3.99
2019-02-17T01:14:08.667Z,3.96
2019-02-17T01:15:18.716Z,3.94
2019-02-17T01:16:29.915Z,3.86
2019-02-17T01:17:39.570Z,3.9
2019-02-17T01:18:49.381Z,3.96
2019-02-17T01:19:59.920Z,3.97
2019-02-17T01:21:09.972Z,3.97
2019-02-17T01:22:20.717Z,4.02
2019-02-17T01:23:30.812Z,4.03
2019-02-17T01:24:40.947Z,3.97
2019-02-17T01:25:50.768Z,3.92
2019-02-17T01:27:03.682Z,3.89
2019-02-17T01:28:13.746Z,3.97
2019-02-17T01:29:25.693Z,3.94
2019-02-17T01:30:35.893Z,3.93
2019-02-17T01:31:45.964Z,3.92
2019-02-17T01:32:56.024Z,3.97
2019-02-17T01:34:06.094Z,3.86
2019-02-17T01:35:16.330Z,3.92
2019-02-17T01:36:26.385Z,3.94
2019-02-17T01:37:36.233Z,3.92
2019-02-17T01:38:46.121Z,3.9
2019-02-17T01:39:55.954Z,3.99
2019-02-17T01:41:06.061Z,3.9
2019-02-17T01:42:16.104Z,3.92
2019-02-17T01:43:26.172Z,3.92
2019-02-17T01:44:36.221Z,3.81
2019-02-17T01:45:46.259Z,3.84
2019-02-17T01:46:56.299Z,3.76
2019-02-17T01:48:06.354Z,3.79
2019-02-17T01:49:16.155Z,3.66
2019-02-17T01:50:25.957Z,3.63
2019-02-17T01:51:35.250Z,3.78
2019-02-17T01:52:45.291Z,3.74
2019-02-17T01:53:55.352Z,3.78
2019-02-17T01:55:05.203Z,3.66
2019-02-17T01:56:15.001Z,3.69
2019-02-17T01:57:25.206Z,3.71
2019-02-17T01:58:35.000Z,3.64
2019-02-17T01:59:45.073Z,3.64
2019-02-17T02:00:55.113Z,3.63
2019-02-17T02:02:05.168Z,3.64
2019-02-17T02:03:15.227Z,3.64
2019-02-17T02:04:25.286Z,3.63
2019-02-17T02:05:35.330Z,3.51
2019-02-17T02:06:45.489Z,3.57
2019-02-17T02:07:55.018Z,3.61
2019-02-17T02:09:07.677Z,3.54
2019-02-17T02:10:17.729Z,3.53
2019-02-17T02:11:27.841Z,3.57
2019-02-17T02:12:37.914Z,3.57
2019-02-17T02:13:47.954Z,3.56
2019-02-17T02:14:58.001Z,3.54
2019-02-17T02:16:09.074Z,3.54
2019-02-17T02:17:19.208Z,3.57
2019-02-17T02:18:29.017Z,3.54
2019-02-17T02:19:39.182Z,3.56
2019-02-17T02:20:49.248Z,3.54
2019-02-17T02:21:59.085Z,3.56
2019-02-17T02:23:09.195Z,3.4
2019-02-17T02:24:19.443Z,3.42
2019-02-17T02:25:29.500Z,3.43
2019-02-17T02:26:39.554Z,3.43
2019-02-17T02:27:49.766Z,3.46
2019-02-17T02:28:59.877Z,3.42
2019-02-17T02:30:10.941Z,3.48
2019-02-17T02:31:20.779Z,3.46
2019-02-17T02:32:30.606Z,3.46
2019-02-17T02:33:40.694Z,3.48
2019-02-17T02:34:51.822Z,3.45
2019-02-17T02:36:01.894Z,3.43
2019-02-17T02:37:12.008Z,3.51
2019-02-17T02:38:22.167Z,3.49
2019-02-17T02:39:32.239Z,3.48
2019-02-17T02:40:42.295Z,3.4
2019-02-17T02:41:52.350Z,3.53
2019-02-17T02:43:02.410Z,3.39
2019-02-17T02:44:12.414Z,3.51
2019-02-17T02:45:22.267Z,3.43
2019-02-17T02:46:32.160Z,3.53
2019-02-17T02:47:42.244Z,3.53
2019-02-17T02:48:52.506Z,3.54
2019-02-17T02:50:03.382Z,3.57
2019-02-17T02:51:13.451Z,3.46
2019-02-17T02:52:23.543Z,3.51
2019-02-17T02:53:33.610Z,3.51
2019-02-17T02:54:43.905Z,3.57
2019-02-17T02:55:53.976Z,3.56
2019-02-17T02:57:04.023Z,3.56
2019-02-17T02:58:14.087Z,3.49
2019-02-17T02:59:23.907Z,3.46
2019-02-17T03:00:34.004Z,3.46
2019-02-17T03:01:44.086Z,3.37
2019-02-17T03:33:55.513Z,0.58
2019-02-17T03:35:08.386Z,0.47
2019-02-17T03:36:18.459Z,0.42
2019-02-17T03:37:28.508Z,0.39
2019-02-17T03:38:38.274Z,0.41
2019-02-17T03:39:48.102Z,0.41
2019-02-17T03:40:58.159Z,0.47
2019-02-17T03:42:07.957Z,0.52
2019-02-17T03:43:18.002Z,0.72
2019-02-17T03:44:28.377Z,0.75
2019-02-17T03:45:38.480Z,0.92
2019-02-17T03:46:49.394Z,1.02
2019-02-17T03:47:59.192Z,1.2
2019-02-17T03:49:10.692Z,1.35
2019-02-17T03:50:20.829Z,1.51
2019-02-17T03:51:31.054Z,1.6
2019-02-17T03:52:41.347Z,1.76
2019-02-17T03:53:51.506Z,1.89
2019-02-17T03:55:03.164Z,1.86
2019-02-17T03:56:13.281Z,1.97
2019-02-17T03:57:23.138Z,2.01
2019-02-17T03:58:33.189Z,2.02
2019-02-17T03:59:43.205Z,2.2
2019-02-17T04:00:52.994Z,2.13
2019-02-17T04:02:03.350Z,2.29
2019-02-17T04:03:13.627Z,2.27
2019-02-17T04:04:23.687Z,2.36
2019-02-17T04:05:33.741Z,2.47
2019-02-17T04:06:43.783Z,2.44
2019-02-17T04:07:53.952Z,2.48
2019-02-17T04:09:06.008Z,2.48
2019-02-17T04:10:16.048Z,2.48
2019-02-17T04:11:26.104Z,2.63
2019-02-17T04:12:35.911Z,2.62
2019-02-17T04:13:45.970Z,2.62
2019-02-17T04:14:56.086Z,2.58
2019-02-17T04:16:06.448Z,2.63
2019-02-17T04:17:16.519Z,2.55
2019-02-17T04:18:26.570Z,2.62
2019-02-17T04:19:36.601Z,2.58
2019-02-17T04:20:46.764Z,2.59
2019-02-17T04:21:56.810Z,2.51
2019-02-17T04:23:06.986Z,2.45
2019-02-17T04:24:17.034Z,2.55
2019-02-17T04:25:27.082Z,2.48
2019-02-17T04:26:37.166Z,2.54
2019-02-17T04:27:47.434Z,2.49
2019-02-17T04:28:57.293Z,2.49
2019-02-17T04:30:08.537Z,2.45
2019-02-17T04:31:18.721Z,2.52
2019-02-17T04:32:28.796Z,2.47
2019-02-17T04:33:38.579Z,2.52
2019-02-17T04:34:48.656Z,2.55
2019-02-17T04:35:58.794Z,2.49
2019-02-17T04:37:08.866Z,2.62
2019-02-17T04:38:18.934Z,2.63
2019-02-17T04:39:28.972Z,2.54
2019-02-17T04:40:39.007Z,2.58
2019-02-17T04:41:49.079Z,2.62
2019-02-17T04:42:59.404Z,2.63
2019-02-17T04:44:09.524Z,2.62
2019-02-17T04:45:19.593Z,2.59
2019-02-17T04:46:29.706Z,2.69
2019-02-17T04:47:39.748Z,2.62
2019-02-17T04:48:50.185Z,2.76
2019-02-17T04:49:59.997Z,2.66
2019-02-17T04:51:10.032Z,2.67
2019-02-17T04:52:19.830Z,2.62
2019-02-17T04:53:29.870Z,2.55
2019-02-17T04:54:39.904Z,2.76
2019-02-17T04:55:50.736Z,2.63
2019-02-17T04:57:03.093Z,2.6
2019-02-17T04:58:13.398Z,2.7
2019-02-17T04:59:23.716Z,2.69
2019-02-17T05:00:44.430Z,2.63
2019-02-17T05:01:55.448Z,2.72
2019-02-17T05:03:06.261Z,2.76
2019-02-17T05:04:16.108Z,2.6
2019-02-17T05:05:25.928Z,2.65
2019-02-17T05:06:36.063Z,2.65
2019-02-17T05:07:48.696Z,2.59
2019-02-17T05:08:58.803Z,2.65
2019-02-17T05:10:10.716Z,2.63
2019-02-17T05:11:20.504Z,2.58
2019-02-17T05:12:30.561Z,2.59
2019-02-17T05:13:40.708Z,2.62
2019-02-17T05:14:50.772Z,2.59
2019-02-17T05:16:01.493Z,2.58
2019-02-17T05:17:11.337Z,2.58
2019-02-17T05:18:21.553Z,2.49
2019-02-17T05:19:31.628Z,2.52
2019-02-17T05:20:41.740Z,2.52
2019-02-17T05:21:52.012Z,2.48
2019-02-17T05:23:02.067Z,2.51
2019-02-17T05:24:12.185Z,2.48
2019-02-17T05:25:22.235Z,2.48
2019-02-17T05:26:32.035Z,2.51
2019-02-17T05:27:42.078Z,2.51
2019-02-17T05:28:52.447Z,2.51
2019-02-17T05:30:04.142Z,2.51
2019-02-17T05:31:14.200Z,2.55
2019-02-17T05:32:24.265Z,2.55
2019-02-17T05:33:34.077Z,2.58
2019-02-17T05:34:44.356Z,2.54
2019-02-17T05:35:54.541Z,2.54
2019-02-17T05:37:04.793Z,2.58
2019-02-17T05:38:14.856Z,2.49
2019-02-17T05:39:24.701Z,2.51
2019-02-17T05:40:36.402Z,2.45
2019-02-17T05:41:46.721Z,2.47
2019-02-17T05:42:56.783Z,2.48
2019-02-17T05:44:06.863Z,2.41
2019-02-17T05:45:16.987Z,2.44
2019-02-17T05:46:26.792Z,2.33
2019-02-17T05:47:36.854Z,2.27
2019-02-17T05:48:46.900Z,2.27
2019-02-17T05:49:56.955Z,2.3
2019-02-17T05:51:07.022Z,2.34
2019-02-17T05:52:17.133Z,2.3
2019-02-17T05:53:27.234Z,2.31
2019-02-17T05:54:37.522Z,2.29
2019-02-17T05:55:47.060Z,2.33
2019-02-17T05:56:57.116Z,2.31
2019-02-17T05:58:07.205Z,2.34
2019-02-17T05:59:17.384Z,2.38
2019-02-17T06:00:27.446Z,2.4
2019-02-17T06:01:37.253Z,2.42
2019-02-17T06:02:47.311Z,2.4
2019-02-17T06:03:56.842Z,2.51
2019-02-17T06:05:07.540Z,2.38
2019-02-17T06:06:19.777Z,2.34
2019-02-17T06:07:30.215Z,2.4
2019-02-17T06:08:40.024Z,2.41
2019-02-17T06:09:50.075Z,2.42
2019-02-17T06:10:59.886Z,2.44
2019-02-17T06:12:09.703Z,2.52
2019-02-17T06:13:19.778Z,2.48
2019-02-17T06:14:29.859Z,2.55
2019-02-17T06:15:39.922Z,2.63
2019-02-17T06:16:49.985Z,2.67
2019-02-17T06:18:00.044Z,2.66
2019-02-17T06:19:10.118Z,2.7
2019-02-17T06:20:19.912Z,2.7
2019-02-17T06:21:29.747Z,2.59
2019-02-17T06:22:39.840Z,2.78
2019-02-17T06:23:49.363Z,2.76
2019-02-17T06:24:59.177Z,2.77
2019-02-17T06:26:09.266Z,2.76
2019-02-17T06:27:19.164Z,2.78
2019-02-17T06:28:29.218Z,2.85
2019-02-17T06:29:39.366Z,2.88
2019-02-17T06:30:49.407Z,2.88
2019-02-17T06:31:58.934Z,2.95
2019-02-17T06:33:09.073Z,2.96
2019-02-17T06:34:18.618Z,3.14
2019-02-17T06:35:28.161Z,3.14
2019-02-17T06:36:40.782Z,3.08
2019-02-17T06:37:51.160Z,3.16
2019-02-17T06:39:01.495Z,3.29
2019-02-17T06:40:11.330Z,3.3
2019-02-17T06:41:21.398Z,3.32
2019-02-17T06:42:31.431Z,3.4
2019-02-17T06:43:41.554Z,3.43
2019-02-17T06:44:51.879Z,3.4
2019-02-17T06:46:02.259Z,3.43
2019-02-17T06:47:12.306Z,3.49
2019-02-17T06:48:22.380Z,3.54
2019-02-17T06:49:32.447Z,3.66
2019-02-17T06:50:42.503Z,3.74
2019-02-17T06:51:52.709Z,3.79
2019-02-17T06:53:04.256Z,3.78
2019-02-17T06:54:14.306Z,3.85
2019-02-17T06:55:23.618Z,3.85
2019-02-17T06:56:33.664Z,3.97
2019-02-17T06:57:43.731Z,4.04
2019-02-17T06:58:53.514Z,4.03
2019-02-17T07:00:04.342Z,4.11
2019-02-17T07:01:23.974Z,4.2
2019-02-17T07:02:34.442Z,4.17
2019-02-17T07:03:44.629Z,4.2
2019-02-17T07:04:54.763Z,4.24
2019-02-17T07:06:04.494Z,4.38
2019-02-17T07:07:14.672Z,4.36
2019-02-17T07:08:24.870Z,4.47
2019-02-17T07:09:35.042Z,4.6
2019-02-17T07:10:44.855Z,4.65
2019-02-17T07:11:56.711Z,4.65
2019-02-17T07:13:07.026Z,4.78
2019-02-17T07:14:16.844Z,4.83
2019-02-17T07:15:26.638Z,4.9
2019-02-17T07:16:36.447Z,5.05
2019-02-17T07:17:46.502Z,5.03
2019-02-17T07:18:56.592Z,5.06
2019-02-17T07:20:06.656Z,5.15
2019-02-17T07:21:17.559Z,5.23
2019-02-17T07:22:27.624Z,5.31
2019-02-17T07:23:37.694Z,5.41
2019-02-17T07:24:47.761Z,5.49
2019-02-17T07:25:57.841Z,5.51
2019-02-17T07:27:08.394Z,5.6
2019-02-17T07:28:18.189Z,5.64
2019-02-17T07:29:28.323Z,5.72
2019-02-17T07:30:38.125Z,5.8
2019-02-17T07:31:48.177Z,5.95
2019-02-17T07:32:58.279Z,5.89
2019-02-17T07:34:08.074Z,6
2019-02-17T07:35:18.246Z,6.07
2019-02-17T07:36:28.316Z,6.03
2019-02-17T07:37:38.889Z,6.1
2019-02-17T07:38:48.956Z,6.25
2019-02-17T07:39:59.000Z,6.28
2019-02-17T07:41:09.946Z,6.28
2019-02-17T07:42:20.010Z,6.43
2019-02-17T07:43:30.139Z,6.47
2019-02-17T07:44:40.517Z,6.47
2019-02-17T07:45:50.676Z,6.57
2019-02-17T07:47:00.729Z,6.62
2019-02-17T07:48:10.536Z,6.68
2019-02-17T07:49:20.361Z,6.73
2019-02-17T07:50:29.931Z,6.85
2019-02-17T07:51:39.994Z,6.86
2019-02-17T07:52:49.795Z,7.01
2019-02-17T07:53:59.617Z,7.01
2019-02-17T07:55:09.732Z,7.09
2019-02-17T07:56:19.843Z,7.08
2019-02-17T07:57:29.873Z,7.27
2019-02-17T07:58:40.030Z,7.23
2019-02-17T07:59:50.090Z,7.39
2019-02-17T08:01:00.210Z,7.47
2019-02-17T08:02:12.363Z,7.52
2019-02-17T08:03:22.429Z,7.59
2019-02-17T08:04:32.511Z,7.71
2019-02-17T08:05:42.322Z,7.78
2019-02-17T08:06:52.464Z,7.92
2019-02-17T08:08:02.790Z,7.95
2019-02-17T08:09:12.850Z,7.98
2019-02-17T08:10:22.910Z,8.04
2019-02-17T08:11:32.979Z,8.26
2019-02-17T08:12:42.572Z,8.25
2019-02-17T08:13:52.115Z,8.39
2019-02-17T08:15:02.193Z,8.47
2019-02-17T08:16:12.488Z,8.49
2019-02-17T08:17:22.641Z,8.6
2019-02-17T08:18:32.676Z,8.65
2019-02-17T08:19:42.564Z,8.67
2019-02-17T08:20:52.654Z,8.82
2019-02-17T08:22:04.690Z,8.83
2019-02-17T08:23:14.775Z,8.97
2019-02-17T08:24:24.823Z,9.11
2019-02-17T08:25:34.383Z,9.16
2019-02-17T08:26:44.474Z,9.27
2019-02-17T08:27:54.488Z,9.29
2019-02-17T08:29:04.951Z,9.27
2019-02-17T08:30:15.013Z,9.42
2019-02-17T08:31:25.083Z,9.42
2019-02-17T08:32:34.874Z,9.56
2019-02-17T08:33:44.886Z,9.57
2019-02-17T08:34:55.736Z,9.64
2019-02-17T08:36:07.501Z,9.78
2019-02-17T08:37:17.299Z,9.81
2019-02-17T08:38:27.479Z,9.84
2019-02-17T08:39:37.600Z,9.88
2019-02-17T08:40:47.654Z,9.99
2019-02-17T08:41:57.702Z,9.93
2019-02-17T08:43:07.810Z,10.02
2019-02-17T08:44:17.890Z,10.1
2019-02-17T08:45:27.943Z,10.14
2019-02-17T08:46:37.814Z,10.2
2019-02-17T08:47:50.442Z,10.33
2019-02-17T08:49:00.590Z,10.35
2019-02-17T08:50:10.707Z,10.38
2019-02-17T08:51:20.793Z,10.41
2019-02-17T08:52:30.852Z,10.55
2019-02-17T08:53:40.764Z,10.58
2019-02-17T08:54:50.851Z,10.75
2019-02-17T08:56:00.958Z,10.8
2019-02-17T08:57:11.029Z,10.85
2019-02-17T08:58:21.083Z,10.87
2019-02-17T08:59:31.409Z,10.98
2019-02-17T09:00:41.518Z,11.08
2019-02-17T09:01:51.605Z,11.09
2019-02-17T09:03:11.011Z,11.2
2019-02-17T09:04:20.837Z,11.23
2019-02-17T09:05:30.937Z,11.21
2019-02-17T09:06:51.489Z,11.34
2019-02-17T09:08:04.034Z,11.42
2019-02-17T09:09:14.166Z,11.49
2019-02-17T09:10:24.546Z,11.51
2019-02-17T09:11:34.602Z,11.59
2019-02-17T09:12:44.665Z,11.68
2019-02-17T09:13:54.716Z,11.66
2019-02-17T09:15:04.771Z,11.76
2019-02-17T09:16:14.842Z,11.81
2019-02-17T09:17:24.912Z,11.76
2019-02-17T09:18:35.085Z,11.88
2019-02-17T09:19:45.184Z,11.89
2019-02-17T09:20:55.306Z,12.01
2019-02-17T09:22:05.673Z,12.01
2019-02-17T09:23:15.785Z,12.11
2019-02-17T09:24:26.072Z,12.15
2019-02-17T09:25:36.179Z,12.13
2019-02-17T09:26:46.488Z,12.18
2019-02-17T09:27:56.029Z,12.19
2019-02-17T09:29:06.107Z,12.25
2019-02-17T09:30:16.207Z,12.29
2019-02-17T09:31:26.014Z,12.2
2019-02-17T09:32:35.588Z,12.25
2019-02-17T09:33:45.746Z,12.31
2019-02-17T09:34:55.816Z,12.43
2019-02-17T09:36:07.268Z,12.56
2019-02-17T09:37:17.328Z,12.55
2019-02-17T09:38:27.399Z,12.55
2019-02-17T09:39:37.512Z,12.58
2019-02-17T09:40:47.559Z,12.55
2019-02-17T09:41:57.619Z,12.58
2019-02-17T09:43:07.670Z,12.59
2019-02-17T09:44:17.463Z,12.55
2019-02-17T09:45:27.335Z,12.53
2019-02-17T09:46:37.401Z,12.55
2019-02-17T09:47:47.703Z,12.56
2019-02-17T09:48:58.381Z,12.61
2019-02-17T09:50:10.706Z,12.73
2019-02-17T09:51:20.755Z,12.71
2019-02-17T09:52:30.594Z,12.81
2019-02-17T09:53:40.653Z,12.76
2019-02-17T09:54:50.730Z,12.89
2019-02-17T09:56:02.374Z,12.91
2019-02-17T09:57:12.498Z,12.98
2019-02-17T09:58:22.587Z,13.1
2019-02-17T09:59:32.627Z,13.17
2019-02-17T10:00:42.709Z,13.2
2019-02-17T10:01:52.696Z,13.31
2019-02-17T10:03:02.767Z,13.31
2019-02-17T10:04:12.853Z,13.36
2019-02-17T10:05:22.660Z,13.39
2019-02-17T10:06:32.500Z,13.39
2019-02-17T10:07:42.664Z,13.42
2019-02-17T10:08:52.858Z,13.42
2019-02-17T10:10:03.486Z,13.35
2019-02-17T10:11:13.565Z,13.47
2019-02-17T10:12:23.716Z,13.36
2019-02-17T10:13:33.270Z,13.37
2019-02-17T10:14:43.323Z,13.45
2019-02-17T10:15:53.402Z,13.48
2019-02-17T10:17:03.554Z,13.48
2019-02-17T10:18:13.743Z,13.54
2019-02-17T10:19:23.929Z,13.53
2019-02-17T10:20:33.790Z,13.53
2019-02-17T10:21:43.896Z,13.58
2019-02-17T10:22:53.709Z,13.63
2019-02-17T10:24:03.792Z,13.62
2019-02-17T10:25:13.890Z,13.65
2019-02-17T10:26:23.702Z,13.63
2019-02-17T10:27:33.545Z,13.69
2019-02-17T10:28:47.359Z,13.72
